createdAt,value
2023-03-25T00:04:00.865Z,100699.16
2023-03-25T00:08:00.992Z,100707.06
2023-03-25T00:12:00.761Z,100696.59
2023-03-25T00:16:02.839Z,100707.16
2023-03-25T00:20:05.650Z,100698.41
2023-03-25T00:24:05.632Z,100686.22
2023-03-25T00:28:05.444Z,100681.91
2023-03-25T00:32:07.715Z,100668.84
2023-03-25T00:36:08.922Z,100666.25
2023-03-25T00:40:09.594Z,100675.81
2023-03-25T00:44:09.782Z,100667.06
2023-03-25T00:48:14.389Z,100660.13
2023-03-25T00:52:16.088Z,100644.41
2023-03-25T00:56:18.738Z,100645.25
2023-03-25T01:00:20.236Z,100656.59
2023-03-25T01:04:22.153Z,100651.41
2023-03-25T01:08:25.158Z,100643.53
2023-03-25T01:12:25.599Z,100639.16
2023-03-25T01:16:26.611Z,100641.69
2023-03-25T01:20:28.860Z,100637.16
2023-03-25T01:24:28.655Z,100637.16
2023-03-25T01:28:30.308Z,100643.44
2023-03-25T01:32:30.873Z,100639.97
2023-03-25T01:36:32.995Z,100628.69
2023-03-25T01:40:32.668Z,100632.19
2023-03-25T01:44:50.751Z,100638.28
2023-03-25T01:48:50.011Z,100627.75
2023-03-25T01:52:53.330Z,100625.94
2023-03-25T01:56:53.418Z,100615.44
2023-03-25T02:00:57.385Z,100623.25
2023-03-25T02:05:00.973Z,100620.63
2023-03-25T02:09:04.887Z,100615.41
2023-03-25T02:13:04.913Z,100608.44
2023-03-25T02:17:11.198Z,100587.44
2023-03-25T02:21:46.185Z,100584.75
2023-03-25T02:26:02.890Z,100576.03
2023-03-25T02:30:26.321Z,100573.38
2023-03-25T02:34:35.491Z,100572.56
2023-03-25T02:38:41.651Z,100577.91
2023-03-25T02:42:43.377Z,100570.06
2023-03-25T02:46:46.067Z,100569.19
2023-03-25T02:50:51.560Z,100571.84
2023-03-25T02:54:57.660Z,100560.47
2023-03-25T02:58:58.699Z,100561.28
2023-03-25T03:03:07.160Z,100560.38
2023-03-25T03:07:11.098Z,100550.00
2023-03-25T03:11:15.934Z,100547.28
2023-03-25T03:15:23.140Z,100555.13
2023-03-25T03:19:32.148Z,100544.59
2023-03-25T03:23:36.857Z,100546.09
2023-03-25T03:27:40.126Z,100545.19
2023-03-25T03:31:48.303Z,100550.44
2023-03-25T03:36:04.268Z,100552.25
2023-03-25T03:40:05.450Z,100544.63
2023-03-25T03:44:10.180Z,100541.22
2023-03-25T03:48:12.597Z,100547.41
2023-03-25T03:52:14.459Z,100546.59
2023-03-25T03:56:19.055Z,100543.09
2023-03-25T04:00:25.799Z,100538.75
2023-03-25T04:04:27.015Z,100542.16
2023-03-25T04:08:31.453Z,100538.59
2023-03-25T04:12:37.381Z,100548.28
2023-03-25T04:16:39.493Z,100555.31
2023-03-25T04:20:46.092Z,100538.72
2023-03-25T04:24:50.901Z,100547.34
2023-03-25T04:28:50.661Z,100554.28
2023-03-25T04:32:54.323Z,100557.84
2023-03-25T04:36:54.892Z,100558.78
2023-03-25T04:40:55.866Z,100562.31
2023-03-25T04:44:59.786Z,100561.44
2023-03-25T04:49:08.882Z,100559.69
2023-03-25T04:53:11.516Z,100550.97
2023-03-25T04:57:11.569Z,100560.31
2023-03-25T05:01:17.466Z,100561.88
2023-03-25T05:05:20.212Z,100563.53
2023-03-25T05:09:21.793Z,100560.84
2023-03-25T05:13:22.056Z,100561.56
2023-03-25T05:17:29.639Z,100557.63
2023-03-25T05:21:31.420Z,100558.00
2023-03-25T05:25:34.276Z,100559.06
2023-03-25T05:29:34.766Z,100559.38
2023-03-25T05:33:35.052Z,100564.84
2023-03-25T05:37:41.548Z,100566.75
2023-03-25T05:41:41.398Z,100569.81
2023-03-25T05:45:41.180Z,100564.69
2023-03-25T05:49:42.490Z,100564.66
2023-03-25T05:53:49.480Z,100569.00
2023-03-25T05:57:49.706Z,100564.72
2023-03-25T06:01:50.161Z,100566.50
2023-03-25T06:05:50.311Z,100562.97
2023-03-25T06:09:54.002Z,100569.97
2023-03-25T06:13:55.952Z,100560.34
2023-03-25T06:17:55.540Z,100568.13
2023-03-25T06:21:55.876Z,100566.22
2023-03-25T06:25:58.627Z,100549.66
2023-03-25T06:29:58.189Z,100560.13
2023-03-25T06:33:59.929Z,100566.16
2023-03-25T06:37:59.693Z,100573.94
2023-03-25T06:42:02.218Z,100567.66
2023-03-25T06:46:01.813Z,100573.91
2023-03-25T06:50:02.557Z,100572.84
2023-03-25T06:54:01.586Z,100570.09
2023-03-25T06:58:03.403Z,100566.56
2023-03-25T07:02:03.117Z,100556.31
2023-03-25T07:06:02.783Z,100567.03
2023-03-25T07:10:05.195Z,100567.72
2023-03-25T07:14:06.945Z,100574.28
2023-03-25T07:18:06.611Z,100567.47
2023-03-25T07:22:06.257Z,100561.94
2023-03-25T07:26:05.987Z,100556.56
2023-03-25T07:30:08.703Z,100559.97
2023-03-25T07:34:08.377Z,100566.81
2023-03-25T07:38:09.687Z,100570.25
2023-03-25T07:42:09.397Z,100571.75
2023-03-25T07:46:12.616Z,100577.31
2023-03-25T07:50:12.367Z,100564.84
2023-03-25T07:54:12.023Z,100573.63
2023-03-25T07:58:11.708Z,100573.63
2023-03-25T08:02:14.288Z,100569.44
2023-03-25T08:06:13.988Z,100574.97
2023-03-25T08:10:14.908Z,100570.84
2023-03-25T08:14:14.494Z,100573.03
2023-03-25T08:18:16.337Z,100570.63
2023-03-25T08:22:15.953Z,100569.94
2023-03-25T08:26:16.149Z,100563.34
2023-03-25T08:30:16.903Z,100558.22
2023-03-25T08:34:18.060Z,100549.63
2023-03-25T08:38:18.163Z,100536.72
2023-03-25T08:42:18.411Z,100538.25
2023-03-25T08:46:18.197Z,100535.84
2023-03-25T08:50:22.784Z,100539.38
2023-03-25T08:54:23.101Z,100530.66
2023-03-25T08:58:22.872Z,100535.16
2023-03-25T09:02:22.073Z,100517.75
2023-03-25T09:06:24.427Z,100507.81
2023-03-25T09:10:24.960Z,100504.44
2023-03-25T09:14:24.484Z,100504.88
2023-03-25T09:18:24.870Z,100503.00
2023-03-25T09:22:29.035Z,100503.84
2023-03-25T09:26:36.743Z,100510.31
2023-03-25T09:30:45.949Z,100508.66
2023-03-25T09:35:13.147Z,100490.84
2023-03-25T09:39:43.426Z,100493.75
2023-03-25T09:43:57.232Z,100484.84
2023-03-25T09:48:01.836Z,100483.53
2023-03-25T09:56:34.401Z,100474.75
2023-03-25T10:00:35.979Z,100480.09
2023-03-25T10:04:56.313Z,100476.91
2023-03-25T10:09:36.036Z,100472.06
2023-03-25T10:13:57.990Z,100460.94
2023-03-25T10:18:30.153Z,100463.69
2023-03-25T10:22:30.738Z,100468.84
2023-03-25T10:26:56.339Z,100458.94
2023-03-25T10:30:59.783Z,100454.34
2023-03-25T10:35:15.173Z,100456.44
2023-03-25T10:43:40.902Z,100448.13
2023-03-25T10:47:49.042Z,100434.66
2023-03-25T10:51:54.464Z,100433.81
2023-03-25T10:56:11.652Z,100438.88
2023-03-25T11:00:23.226Z,100432.56
2023-03-25T11:04:31.694Z,100421.53
2023-03-25T11:15:34.945Z,100408.59
2023-03-25T11:19:01.926Z,100400.03
2023-03-25T11:23:44.268Z,100388.50
2023-03-25T11:28:20.445Z,100381.22
2023-03-25T11:50:52.676Z,100340.41
2023-03-25T11:54:55.099Z,100326.78
2023-03-25T11:59:06.575Z,100331.84
2023-03-25T12:03:20.969Z,100333.97
2023-03-25T12:13:04.911Z,100325.03
2023-03-25T12:17:08.252Z,100308.47
2023-03-25T12:21:14.959Z,100309.97
2023-03-25T12:25:20.828Z,100313.47
2023-03-25T12:29:32.722Z,100304.06
2023-03-25T12:33:39.049Z,100299.97
2023-03-25T12:37:42.808Z,100295.81
2023-03-25T12:41:46.437Z,100292.94
2023-03-25T12:46:03.836Z,100295.50
2023-03-25T12:50:17.664Z,100289.63
2023-03-25T12:54:30.393Z,100279.94
2023-03-25T12:58:37.411Z,100270.28
2023-03-25T13:02:49.999Z,100264.66
2023-03-25T13:06:59.661Z,100260.47
2023-03-25T13:11:08.606Z,100256.72
2023-03-25T13:15:27.171Z,100251.13
2023-03-25T13:19:31.914Z,100252.47
2023-03-25T13:23:36.093Z,100247.81
2023-03-25T13:27:36.627Z,100246.00
2023-03-25T13:31:40.136Z,100257.41
2023-03-25T13:35:45.073Z,100240.31
2023-03-25T13:39:52.575Z,100232.03
2023-03-25T13:44:00.449Z,100235.38
2023-03-25T13:48:04.027Z,100233.13
2023-03-25T13:52:07.497Z,100231.38
2023-03-25T13:56:35.127Z,100235.31
2023-03-25T14:00:53.425Z,100220.84
2023-03-25T14:05:12.761Z,100220.72
2023-03-25T14:09:46.422Z,100228.53
2023-03-25T14:13:51.330Z,100233.31
2023-03-25T14:17:52.510Z,100225.66
2023-03-25T14:21:53.487Z,100235.63
2023-03-25T14:26:34.869Z,100232.31
2023-03-25T14:30:30.679Z,100220.25
2023-03-25T14:35:14.528Z,100213.63
2023-03-25T14:39:59.872Z,100210.88
2023-03-25T14:45:15.454Z,100209.97
2023-03-25T14:49:30.108Z,100191.38
2023-03-25T14:53:29.592Z,100209.97
2023-03-25T14:57:43.059Z,100200.44
2023-03-25T15:01:49.651Z,100194.13
2023-03-25T15:06:00.803Z,100203.41
2023-03-25T15:10:03.616Z,100195.47
2023-03-25T15:14:08.714Z,100202.44
2023-03-25T15:24:02.125Z,100196.44
2023-03-25T15:28:25.394Z,100199.44
2023-03-25T15:32:33.214Z,100189.66
2023-03-25T15:36:43.342Z,100202.53
2023-03-25T15:43:53.336Z,100188.25
2023-03-25T15:48:18.581Z,100188.25
2023-03-25T15:52:36.032Z,100183.88
2023-03-25T15:57:13.216Z,100181.28
2023-03-25T16:01:22.407Z,100181.81
2023-03-25T16:05:23.002Z,100184.75
2023-03-25T16:09:27.280Z,100198.16
2023-03-25T16:13:36.604Z,100192.53
2023-03-25T16:17:43.912Z,100189.78
2023-03-25T16:21:43.968Z,100193.66
2023-03-25T16:26:14.597Z,100192.06
2023-03-25T16:30:39.847Z,100189.56
2023-03-25T16:35:02.361Z,100198.78
2023-03-25T16:39:15.547Z,100194.47
2023-03-25T16:43:22.025Z,100199.72
2023-03-25T16:47:29.858Z,100196.56
2023-03-25T16:57:44.285Z,100186.53
2023-03-25T19:08:35.106Z,100184.53
2023-03-25T19:34:06.222Z,100195.06
2023-03-25T20:33:44.853Z,100198.16
2023-03-25T21:34:20.283Z,100194.00
2023-03-25T23:18:43.147Z,100288.84
2023-03-25T23:23:11.161Z,100311.97
2023-03-25T23:27:40.644Z,100325.25
2023-03-25T23:32:57.569Z,100332.97
2023-03-25T23:42:45.837Z,100328.59
2023-03-25T23:47:23.613Z,100327.06
